SEDDC ESSB-ESKN
Flight info
| Callsign | SEDDC |
|---|---|
| Flight time | 0h 22m |
| Altitude | 4500 |
| Route | VFR |
| Aircraft | BE36/L-BDFGLORY/S |
Departure
| Time | 2026-05-05 18:26 |
|---|---|
| Airport | Stockholm-Bromma Airport (ESSB) |
Arrival
| Time | 2026-05-05 18:48 |
|---|---|
| Airport | Stockholm Skavsta Airport (ESKN) |
| Time | Latitude | Longitude | Altitude | Speed | Heading |
|---|---|---|---|---|---|
| 2026-05-05 18:13 | 59.35898 | 17.93749 | 34 ft | 0 kts | 250° |
| 2026-05-05 18:21 | 59.35879 | 17.93751 | 34 ft | 7 kts | 171° |
| 2026-05-05 18:21 | 59.35805 | 17.93804 | 34 ft | 14 kts | 131° |
| 2026-05-05 18:21 | 59.35735 | 17.93884 | 34 ft | 10 kts | 155° |
| 2026-05-05 18:21 | 59.35672 | 17.94042 | 34 ft | 18 kts | 126° |
| 2026-05-05 18:22 | 59.35565 | 17.94169 | 34 ft | 15 kts | 142° |
| 2026-05-05 18:22 | 59.35499 | 17.94338 | 34 ft | 17 kts | 124° |
| 2026-05-05 18:22 | 59.35428 | 17.94538 | 34 ft | 19 kts | 126° |
| 2026-05-05 18:22 | 59.35349 | 17.94757 | 34 ft | 20 kts | 123° |
| 2026-05-05 18:23 | 59.35303 | 17.94989 | 34 ft | 18 kts | 96° |
| 2026-05-05 18:23 | 59.35247 | 17.95206 | 34 ft | 19 kts | 125° |
| 2026-05-05 18:23 | 59.35169 | 17.95424 | 34 ft | 19 kts | 126° |
| 2026-05-05 18:23 | 59.35088 | 17.95517 | 34 ft | 13 kts | 172° |
| 2026-05-05 18:24 | 59.35076 | 17.95520 | 34 ft | 2 kts | 174° |
| 2026-05-05 18:24 | 59.35042 | 17.95527 | 33 ft | 13 kts | 173° |
| 2026-05-05 18:24 | 59.34985 | 17.95421 | 32 ft | 10 kts | 308° |
| 2026-05-05 18:24 | 59.35009 | 17.95355 | 34 ft | 11 kts | 304° |
| 2026-05-05 18:25 | 59.35119 | 17.95044 | 37 ft | 57 kts | 305° |
| 2026-05-05 18:25 | 59.35212 | 17.94786 | 50 ft | 78 kts | 303° |
| 2026-05-05 18:25 | 59.35773 | 17.93132 | 461 ft | 93 kts | 302° |
| 2026-05-05 18:25 | 59.36028 | 17.92400 | 620 ft | 98 kts | 303° |
| 2026-05-05 18:26 | 59.36191 | 17.91149 | 876 ft | 102 kts | 259° |
| 2026-05-05 18:26 | 59.35848 | 17.89846 | 907 ft | 108 kts | 242° |
| 2026-05-05 18:26 | 59.35464 | 17.88654 | 900 ft | 100 kts | 234° |
| 2026-05-05 18:26 | 59.34977 | 17.87694 | 843 ft | 104 kts | 229° |
| 2026-05-05 18:27 | 59.34414 | 17.86650 | 891 ft | 117 kts | 230° |
| 2026-05-05 18:27 | 59.33803 | 17.85515 | 960 ft | 126 kts | 228° |
| 2026-05-05 18:27 | 59.33167 | 17.84225 | 1054 ft | 135 kts | 238° |
| 2026-05-05 18:27 | 59.32655 | 17.82665 | 1152 ft | 138 kts | 240° |
| 2026-05-05 18:28 | 59.31524 | 17.79544 | 1301 ft | 143 kts | 238° |
| 2026-05-05 18:28 | 59.30944 | 17.77950 | 1358 ft | 144 kts | 239° |
| 2026-05-05 18:28 | 59.30376 | 17.76375 | 1441 ft | 135 kts | 239° |
| 2026-05-05 18:29 | 59.29859 | 17.74942 | 1538 ft | 121 kts | 239° |
| 2026-05-05 18:29 | 59.29380 | 17.73684 | 1687 ft | 112 kts | 235° |
| 2026-05-05 18:29 | 59.28817 | 17.72638 | 1831 ft | 111 kts | 228° |
| 2026-05-05 18:29 | 59.28197 | 17.71624 | 1997 ft | 123 kts | 226° |
| 2026-05-05 18:30 | 59.27513 | 17.70511 | 2173 ft | 131 kts | 225° |
| 2026-05-05 18:30 | 59.26798 | 17.69338 | 2342 ft | 136 kts | 226° |
| 2026-05-05 18:30 | 59.26066 | 17.68129 | 2505 ft | 139 kts | 226° |
| 2026-05-05 18:30 | 59.25322 | 17.66895 | 2666 ft | 141 kts | 226° |
| 2026-05-05 18:31 | 59.24572 | 17.65646 | 2826 ft | 142 kts | 225° |
| 2026-05-05 18:31 | 59.23816 | 17.64386 | 2978 ft | 142 kts | 226° |
| 2026-05-05 18:31 | 59.23063 | 17.63132 | 3135 ft | 142 kts | 226° |
| 2026-05-05 18:31 | 59.22312 | 17.61878 | 3292 ft | 142 kts | 226° |
| 2026-05-05 18:32 | 59.21557 | 17.60620 | 3454 ft | 142 kts | 226° |
| 2026-05-05 18:32 | 59.20821 | 17.59389 | 3609 ft | 141 kts | 226° |
| 2026-05-05 18:32 | 59.20078 | 17.58153 | 3766 ft | 140 kts | 226° |
| 2026-05-05 18:32 | 59.19341 | 17.56921 | 3920 ft | 139 kts | 226° |
| 2026-05-05 18:33 | 59.18611 | 17.55700 | 4072 ft | 138 kts | 226° |
| 2026-05-05 18:33 | 59.17884 | 17.54489 | 4234 ft | 137 kts | 226° |
| 2026-05-05 18:33 | 59.17160 | 17.53279 | 4390 ft | 137 kts | 226° |
| 2026-05-05 18:33 | 59.16433 | 17.52063 | 4482 ft | 140 kts | 226° |
| 2026-05-05 18:34 | 59.15680 | 17.50794 | 4512 ft | 146 kts | 226° |
| 2026-05-05 18:34 | 59.14899 | 17.49491 | 4530 ft | 149 kts | 226° |
| 2026-05-05 18:34 | 59.14139 | 17.48224 | 4531 ft | 152 kts | 226° |
| 2026-05-05 18:34 | 59.13290 | 17.46815 | 4514 ft | 155 kts | 225° |
| 2026-05-05 18:35 | 59.12464 | 17.45441 | 4515 ft | 157 kts | 225° |
| 2026-05-05 18:35 | 59.11630 | 17.44060 | 4513 ft | 157 kts | 225° |
| 2026-05-05 18:35 | 59.10807 | 17.42698 | 4509 ft | 157 kts | 225° |
| 2026-05-05 18:35 | 59.09976 | 17.41324 | 4505 ft | 157 kts | 225° |
| 2026-05-05 18:36 | 59.09146 | 17.39947 | 4509 ft | 157 kts | 225° |
| 2026-05-05 18:36 | 59.08313 | 17.38568 | 4508 ft | 157 kts | 225° |
| 2026-05-05 18:36 | 59.07490 | 17.37204 | 4503 ft | 150 kts | 225° |
| 2026-05-05 18:36 | 59.06725 | 17.35941 | 4502 ft | 138 kts | 226° |
| 2026-05-05 18:37 | 59.06011 | 17.34770 | 4505 ft | 130 kts | 226° |
| 2026-05-05 18:37 | 59.05333 | 17.33656 | 4507 ft | 125 kts | 226° |
| 2026-05-05 18:37 | 59.04680 | 17.32580 | 4512 ft | 121 kts | 227° |
| 2026-05-05 18:37 | 59.04051 | 17.31542 | 4510 ft | 119 kts | 227° |
| 2026-05-05 18:38 | 59.03429 | 17.30510 | 4516 ft | 117 kts | 227° |
| 2026-05-05 18:38 | 59.02814 | 17.29494 | 4520 ft | 115 kts | 227° |
| 2026-05-05 18:38 | 59.02203 | 17.28487 | 4519 ft | 114 kts | 227° |
| 2026-05-05 18:38 | 59.01533 | 17.27630 | 4509 ft | 116 kts | 214° |
| 2026-05-05 18:39 | 59.00801 | 17.26953 | 4514 ft | 116 kts | 212° |
| 2026-05-05 18:39 | 59.00067 | 17.26290 | 4498 ft | 118 kts | 212° |
| 2026-05-05 18:39 | 58.99311 | 17.25581 | 4428 ft | 123 kts | 212° |
| 2026-05-05 18:39 | 58.98528 | 17.24836 | 4352 ft | 127 kts | 212° |
| 2026-05-05 18:40 | 58.97738 | 17.24085 | 4279 ft | 129 kts | 212° |
| 2026-05-05 18:40 | 58.96952 | 17.23334 | 4203 ft | 121 kts | 212° |
| 2026-05-05 18:40 | 58.96212 | 17.22632 | 4097 ft | 117 kts | 213° |
| 2026-05-05 18:40 | 58.95486 | 17.21944 | 3957 ft | 115 kts | 213° |
| 2026-05-05 18:41 | 58.94769 | 17.21261 | 3816 ft | 114 kts | 213° |
| 2026-05-05 18:41 | 58.94059 | 17.20586 | 3679 ft | 113 kts | 213° |
| 2026-05-05 18:41 | 58.93353 | 17.19914 | 3549 ft | 113 kts | 213° |
| 2026-05-05 18:41 | 58.92651 | 17.19239 | 3417 ft | 112 kts | 213° |
| 2026-05-05 18:42 | 58.91952 | 17.18572 | 3290 ft | 112 kts | 213° |
| 2026-05-05 18:42 | 58.91262 | 17.17911 | 3159 ft | 109 kts | 213° |
| 2026-05-05 18:42 | 58.90583 | 17.17270 | 3023 ft | 107 kts | 213° |
| 2026-05-05 18:42 | 58.89918 | 17.16637 | 2886 ft | 106 kts | 214° |
| 2026-05-05 18:43 | 58.89268 | 17.16019 | 2751 ft | 105 kts | 214° |
| 2026-05-05 18:43 | 58.88616 | 17.15394 | 2619 ft | 104 kts | 214° |
| 2026-05-05 18:43 | 58.87966 | 17.14777 | 2513 ft | 102 kts | 213° |
| 2026-05-05 18:43 | 58.87328 | 17.14173 | 2427 ft | 102 kts | 214° |
| 2026-05-05 18:44 | 58.86660 | 17.13511 | 2484 ft | 118 kts | 216° |
| 2026-05-05 18:44 | 58.85891 | 17.12672 | 2555 ft | 133 kts | 216° |
| 2026-05-05 18:44 | 58.85054 | 17.11617 | 2627 ft | 150 kts | 225° |
| 2026-05-05 18:44 | 58.84275 | 17.10286 | 2700 ft | 142 kts | 228° |
| 2026-05-05 18:45 | 58.83602 | 17.09064 | 2680 ft | 130 kts | 230° |
| 2026-05-05 18:45 | 58.82939 | 17.07817 | 2657 ft | 137 kts | 230° |
| 2026-05-05 18:45 | 58.82248 | 17.06524 | 2600 ft | 138 kts | 230° |
| 2026-05-05 18:45 | 58.81597 | 17.05228 | 2394 ft | 131 kts | 232° |
| 2026-05-05 18:46 | 58.80980 | 17.03966 | 2115 ft | 129 kts | 233° |
| 2026-05-05 18:46 | 58.80396 | 17.02637 | 1765 ft | 129 kts | 237° |
| 2026-05-05 18:46 | 58.79889 | 17.01291 | 1477 ft | 121 kts | 244° |
| 2026-05-05 18:46 | 58.79519 | 16.99872 | 1239 ft | 118 kts | 254° |
| 2026-05-05 18:47 | 58.79314 | 16.98503 | 948 ft | 88 kts | 263° |
| 2026-05-05 18:47 | 58.79224 | 16.97468 | 736 ft | 74 kts | 265° |
| 2026-05-05 18:47 | 58.79169 | 16.96411 | 599 ft | 83 kts | 267° |
| 2026-05-05 18:47 | 58.79116 | 16.95288 | 459 ft | 83 kts | 268° |
| 2026-05-05 18:48 | 58.79048 | 16.94261 | 310 ft | 73 kts | 266° |
| 2026-05-05 18:48 | 58.78996 | 16.93290 | 200 ft | 73 kts | 266° |
| 2026-05-05 18:48 | 58.78937 | 16.92364 | 142 ft | 56 kts | 265° |
| 2026-05-05 18:48 | 58.78904 | 16.91773 | 141 ft | 35 kts | 263° |
| 2026-05-05 18:49 | 58.78883 | 16.91458 | 143 ft | 16 kts | 263° |
| 2026-05-05 18:49 | 58.78873 | 16.91329 | 143 ft | 8 kts | 261° |
| 2026-05-05 18:49 | 58.78862 | 16.91232 | 144 ft | 10 kts | 249° |
| 2026-05-05 18:49 | 58.78771 | 16.91263 | 142 ft | 21 kts | 161° |
| 2026-05-05 18:50 | 58.78614 | 16.91366 | 141 ft | 20 kts | 160° |
| 2026-05-05 18:50 | 58.78469 | 16.91472 | 141 ft | 19 kts | 151° |
| 2026-05-05 18:50 | 58.78443 | 16.91637 | 142 ft | 13 kts | 78° |
| 2026-05-05 18:50 | 58.78489 | 16.91768 | 142 ft | 12 kts | 55° |
| 2026-05-05 18:51 | 58.78525 | 16.91886 | 142 ft | 9 kts | 58° |
| 2026-05-05 18:51 | 58.78566 | 16.91993 | 142 ft | 14 kts | 50° |
| 2026-05-05 18:51 | 58.78629 | 16.92172 | 142 ft | 17 kts | 69° |
| 2026-05-05 18:51 | 58.78665 | 16.92380 | 142 ft | 16 kts | 66° |
| 2026-05-05 18:52 | 58.78710 | 16.92570 | 142 ft | 13 kts | 96° |
| 2026-05-05 18:52 | 58.78658 | 16.92716 | 142 ft | 14 kts | 130° |
| 2026-05-05 18:52 | 58.78657 | 16.92869 | 142 ft | 13 kts | 60° |
| 2026-05-05 18:52 | 58.78676 | 16.92955 | 142 ft | 0 kts | 90° |